<?xml version="1.0" encoding="UTF-8" standalone="no" ?>
<gpx xmlns="http://www.topografix.com/GPX/1/1" xmlns:xsi="http://www.w3.org/2001/XMLSchema-instance" xsi:schemaLocation="http://www.topografix.com/GPX/1/1 http://www.topografix.com/GPX/1/1/gpx.xsd" version="1.1" creator="VisuGPX - https://www.visugpx.com">
  <metadata>
    <name>TDF ETAPE 6</name>
  </metadata>
  <trk>
    <name><![CDATA[12866048-TDF_Tours_Châteauroux]]></name>
    <extensions>
      <line xmlns="http://www.topografix.com/GPX/gpx_style/0/2">
        <color>0000FF</color>
        <width>4</width>
      </line>
    </extensions>
    <trkseg>
      <trkpt lat="47.3903" lon="0.6888">
        <ele>53</ele>
        <time>2021-06-23T19:55:57Z</time>
      </trkpt>
      <trkpt lat="47.3903" lon="0.6888">
        <ele>53</ele>
        <time>2021-06-23T19:55:57Z</time>
      </trkpt>
      <trkpt lat="47.39023" lon="0.68821">
        <ele>53</ele>
        <time>2021-06-23T19:56:04Z</time>
      </trkpt>
      <trkpt lat="47.39018" lon="0.6882">
        <ele>53</ele>
        <time>2021-06-23T19:56:05Z</time>
      </trkpt>
      <trkpt lat="47.39004" lon="0.68821">
        <ele>52</ele>
        <time>2021-06-23T19:56:08Z</time>
      </trkpt>
      <trkpt lat="47.38998" lon="0.68823">
        <ele>52</ele>
        <time>2021-06-23T19:56:09Z</time>
      </trkpt>
      <trkpt lat="47.38989" lon="0.68829">
        <ele>52</ele>
        <time>2021-06-23T19:56:10Z</time>
      </trkpt>
      <trkpt lat="47.38981" lon="0.68841">
        <ele>52</ele>
        <time>2021-06-23T19:56:12Z</time>
      </trkpt>
      <trkpt lat="47.38976" lon="0.68855">
        <ele>52</ele>
        <time>2021-06-23T19:56:14Z</time>
      </trkpt>
      <trkpt lat="47.38975" lon="0.6889">
        <ele>52</ele>
        <time>2021-06-23T19:56:19Z</time>
      </trkpt>
      <trkpt lat="47.38979" lon="0.68916">
        <ele>52</ele>
        <time>2021-06-23T19:56:22Z</time>
      </trkpt>
      <trkpt lat="47.38983" lon="0.68937">
        <ele>53</ele>
        <time>2021-06-23T19:56:24Z</time>
      </trkpt>
      <trkpt lat="47.38988" lon="0.68948">
        <ele>54</ele>
        <time>2021-06-23T19:56:26Z</time>
      </trkpt>
      <trkpt lat="47.38998" lon="0.6896">
        <ele>55</ele>
        <time>2021-06-23T19:56:28Z</time>
      </trkpt>
      <trkpt lat="47.39005" lon="0.68965">
        <ele>55</ele>
        <time>2021-06-23T19:56:30Z</time>
      </trkpt>
      <trkpt lat="47.3902" lon="0.68964">
        <ele>55</ele>
        <time>2021-06-23T19:56:32Z</time>
      </trkpt>
      <trkpt lat="47.39036" lon="0.69095">
        <ele>54</ele>
        <time>2021-06-23T19:56:48Z</time>
      </trkpt>
      <trkpt lat="47.39054" lon="0.69206">
        <ele>53</ele>
        <time>2021-06-23T19:57:02Z</time>
      </trkpt>
      <trkpt lat="47.39101" lon="0.69542">
        <ele>53</ele>
        <time>2021-06-23T19:57:44Z</time>
      </trkpt>
      <trkpt lat="47.3912" lon="0.69693">
        <ele>52</ele>
        <time>2021-06-23T19:58:02Z</time>
      </trkpt>
      <trkpt lat="47.3915" lon="0.69912">
        <ele>53</ele>
        <time>2021-06-23T19:58:29Z</time>
      </trkpt>
      <trkpt lat="47.3915" lon="0.69912">
        <ele>53</ele>
        <time>2021-06-23T19:58:29Z</time>
      </trkpt>
      <trkpt lat="47.39152" lon="0.69924">
        <ele>53</ele>
        <time>2021-06-23T19:58:30Z</time>
      </trkpt>
      <trkpt lat="47.39198" lon="0.70011">
        <ele>52</ele>
        <time>2021-06-23T19:58:44Z</time>
      </trkpt>
      <trkpt lat="47.39251" lon="0.70124">
        <ele>50</ele>
        <time>2021-06-23T19:59:00Z</time>
      </trkpt>
      <trkpt lat="47.39276" lon="0.70108">
        <ele>50</ele>
        <time>2021-06-23T19:59:05Z</time>
      </trkpt>
      <trkpt lat="47.39313" lon="0.7008">
        <ele>49</ele>
        <time>2021-06-23T19:59:13Z</time>
      </trkpt>
      <trkpt lat="47.39399" lon="0.70006">
        <ele>52</ele>
        <time>2021-06-23T19:59:30Z</time>
      </trkpt>
      <trkpt lat="47.39625" lon="0.69964">
        <ele>54</ele>
        <time>2021-06-23T20:00:11Z</time>
      </trkpt>
      <trkpt lat="47.39751" lon="0.69945">
        <ele>55</ele>
        <time>2021-06-23T20:00:33Z</time>
      </trkpt>
      <trkpt lat="47.39758" lon="0.69945">
        <ele>55</ele>
        <time>2021-06-23T20:00:35Z</time>
      </trkpt>
      <trkpt lat="47.39764" lon="0.69946">
        <ele>54</ele>
        <time>2021-06-23T20:00:36Z</time>
      </trkpt>
      <trkpt lat="47.39766" lon="0.69946">
        <ele>54</ele>
        <time>2021-06-23T20:00:36Z</time>
      </trkpt>
      <trkpt lat="47.39776" lon="0.69949">
        <ele>53</ele>
        <time>2021-06-23T20:00:38Z</time>
      </trkpt>
      <trkpt lat="47.39794" lon="0.69953">
        <ele>52</ele>
        <time>2021-06-23T20:00:41Z</time>
      </trkpt>
      <trkpt lat="47.39812" lon="0.69962">
        <ele>50</ele>
        <time>2021-06-23T20:00:44Z</time>
      </trkpt>
      <trkpt lat="47.39901" lon="0.70007">
        <ele>47</ele>
        <time>2021-06-23T20:01:01Z</time>
      </trkpt>
      <trkpt lat="47.39979" lon="0.70047">
        <ele>47</ele>
        <time>2021-06-23T20:01:16Z</time>
      </trkpt>
      <trkpt lat="47.40102" lon="0.70111">
        <ele>50</ele>
        <time>2021-06-23T20:01:39Z</time>
      </trkpt>
      <trkpt lat="47.40238" lon="0.70182">
        <ele>55</ele>
        <time>2021-06-23T20:02:05Z</time>
      </trkpt>
      <trkpt lat="47.40266" lon="0.70197">
        <ele>55</ele>
        <time>2021-06-23T20:02:10Z</time>
      </trkpt>
      <trkpt lat="47.40275" lon="0.70201">
        <ele>56</ele>
        <time>2021-06-23T20:02:12Z</time>
      </trkpt>
      <trkpt lat="47.40266" lon="0.70197">
        <ele>55</ele>
        <time>2021-06-23T20:02:13Z</time>
      </trkpt>
      <trkpt lat="47.4029" lon="0.70224">
        <ele>56</ele>
        <time>2021-06-23T20:02:19Z</time>
      </trkpt>
      <trkpt lat="47.40301" lon="0.70242">
        <ele>56</ele>
        <time>2021-06-23T20:02:22Z</time>
      </trkpt>
      <trkpt lat="47.40307" lon="0.70259">
        <ele>56</ele>
        <time>2021-06-23T20:02:24Z</time>
      </trkpt>
      <trkpt lat="47.4031" lon="0.70277">
        <ele>56</ele>
        <time>2021-06-23T20:02:26Z</time>
      </trkpt>
      <trkpt lat="47.40309" lon="0.70317">
        <ele>55</ele>
        <time>2021-06-23T20:02:31Z</time>
      </trkpt>
      <trkpt lat="47.40303" lon="0.70373">
        <ele>54</ele>
        <time>2021-06-23T20:02:38Z</time>
      </trkpt>
      <trkpt lat="47.4029" lon="0.70462">
        <ele>52</ele>
        <time>2021-06-23T20:02:49Z</time>
      </trkpt>
      <trkpt lat="47.40288" lon="0.70481">
        <ele>52</ele>
        <time>2021-06-23T20:02:51Z</time>
      </trkpt>
      <trkpt lat="47.40289" lon="0.70493">
        <ele>52</ele>
        <time>2021-06-23T20:02:53Z</time>
      </trkpt>
      <trkpt lat="47.40293" lon="0.70521">
        <ele>52</ele>
        <time>2021-06-23T20:02:56Z</time>
      </trkpt>
      <trkpt lat="47.403" lon="0.70553">
        <ele>52</ele>
        <time>2021-06-23T20:03:00Z</time>
      </trkpt>
      <trkpt lat="47.40305" lon="0.70567">
        <ele>52</ele>
        <time>2021-06-23T20:03:02Z</time>
      </trkpt>
      <trkpt lat="47.40292" lon="0.70735">
        <ele>53</ele>
        <time>2021-06-23T20:03:22Z</time>
      </trkpt>
      <trkpt lat="47.40265" lon="0.71087">
        <ele>54</ele>
        <time>2021-06-23T20:04:05Z</time>
      </trkpt>
      <trkpt lat="47.40264" lon="0.71112">
        <ele>54</ele>
        <time>2021-06-23T20:04:08Z</time>
      </trkpt>
      <trkpt lat="47.40262" lon="0.71125">
        <ele>54</ele>
        <time>2021-06-23T20:04:10Z</time>
      </trkpt>
      <trkpt lat="47.40171" lon="0.71473">
        <ele>51</ele>
        <time>2021-06-23T20:04:55Z</time>
      </trkpt>
      <trkpt lat="47.40168" lon="0.71489">
        <ele>51</ele>
        <time>2021-06-23T20:04:57Z</time>
      </trkpt>
      <trkpt lat="47.40166" lon="0.71522">
        <ele>51</ele>
        <time>2021-06-23T20:05:01Z</time>
      </trkpt>
      <trkpt lat="47.40167" lon="0.71619">
        <ele>50</ele>
        <time>2021-06-23T20:05:12Z</time>
      </trkpt>
      <trkpt lat="47.40171" lon="0.71684">
        <ele>49</ele>
        <time>2021-06-23T20:05:20Z</time>
      </trkpt>
      <trkpt lat="47.40183" lon="0.71781">
        <ele>49</ele>
        <time>2021-06-23T20:05:32Z</time>
      </trkpt>
      <trkpt lat="47.40195" lon="0.71875">
        <ele>49</ele>
        <time>2021-06-23T20:05:43Z</time>
      </trkpt>
      <trkpt lat="47.40223" lon="0.72017">
        <ele>51</ele>
        <time>2021-06-23T20:06:01Z</time>
      </trkpt>
      <trkpt lat="47.4024" lon="0.72085">
        <ele>51</ele>
        <time>2021-06-23T20:06:10Z</time>
      </trkpt>
      <trkpt lat="47.40256" lon="0.72144">
        <ele>50</ele>
        <time>2021-06-23T20:06:18Z</time>
      </trkpt>
      <trkpt lat="47.40336" lon="0.72358">
        <ele>51</ele>
        <time>2021-06-23T20:06:47Z</time>
      </trkpt>
      <trkpt lat="47.40354" lon="0.72385">
        <ele>52</ele>
        <time>2021-06-23T20:06:52Z</time>
      </trkpt>
      <trkpt lat="47.40361" lon="0.72402">
        <ele>52</ele>
        <time>2021-06-23T20:06:54Z</time>
      </trkpt>
      <trkpt lat="47.40361" lon="0.72419">
        <ele>51</ele>
        <time>2021-06-23T20:06:56Z</time>
      </trkpt>
      <trkpt lat="47.40363" lon="0.72427">
        <ele>51</ele>
        <time>2021-06-23T20:06:57Z</time>
      </trkpt>
      <trkpt lat="47.40368" lon="0.72438">
        <ele>52</ele>
        <time>2021-06-23T20:06:59Z</time>
      </trkpt>
    </trkseg>
  </trk>
</gpx>